Terminal Aerodrome Forecast
Issued by NWS

Home | Current Version | Previous Version | Text Only | Print | Product List | Glossary On
Versions: 1 2 3 4 5 6 7 8 9 10 11 12 13 14 15
000
FTUS43 KOAX 220500
TAFSNY
TAF
KSNY 220520Z 2206/2306 08009KT P6SM SKC
     FM220900 28010KT P6SM SKC
     FM221500 02012G22KT P6SM SCT080
     FM222000 09015G25KT P6SM SCT080
     FM230100 10012KT P6SM SKC=

USA.gov is the U.S. government's official web portal to all federal, state and local government web resources and services.